createdAt,value
2023-03-29T00:00:16.806Z,79.80
2023-03-29T00:01:34.810Z,79.22
2023-03-29T00:02:33.577Z,79.22
2023-03-29T00:03:30.816Z,79.50
2023-03-29T00:04:30.610Z,79.95
2023-03-29T00:05:27.289Z,79.18
2023-03-29T00:06:24.171Z,79.44
2023-03-29T00:07:23.625Z,79.16
2023-03-29T00:08:22.138Z,80.21
2023-03-29T00:09:20.033Z,80.51
2023-03-29T00:10:16.744Z,81.10
2023-03-29T00:11:13.303Z,80.80
2023-03-29T00:12:11.677Z,81.10
2023-03-29T00:13:09.139Z,80.81
2023-03-29T00:14:05.829Z,79.37
2023-03-29T00:15:04.345Z,80.32
2023-03-29T00:16:00.946Z,79.89
2023-03-29T00:16:58.341Z,80.49
2023-03-29T00:17:55.097Z,80.24
2023-03-29T00:18:51.764Z,79.13
2023-03-29T00:19:49.182Z,80.35
2023-03-29T00:20:45.813Z,81.46
2023-03-29T00:21:42.394Z,80.98
2023-03-29T00:22:42.208Z,81.61
2023-03-29T00:23:38.924Z,81.48
2023-03-29T00:24:36.213Z,82.24
2023-03-29T00:25:32.844Z,81.54
2023-03-29T00:26:29.457Z,83.10
2023-03-29T00:27:26.117Z,83.89
2023-03-29T00:28:23.795Z,84.34
2023-03-29T00:29:20.583Z,83.65
2023-03-29T00:30:17.584Z,83.97
2023-03-29T00:31:19.341Z,83.63
2023-03-29T00:32:16.164Z,83.78
2023-03-29T00:33:14.611Z,83.89
2023-03-29T00:34:11.711Z,83.93
2023-03-29T00:35:09.143Z,84.73
2023-03-29T00:36:07.442Z,83.92
2023-03-29T00:37:04.295Z,84.83
2023-03-29T00:38:00.903Z,85.04
2023-03-29T00:38:57.523Z,84.95
2023-03-29T00:39:54.156Z,84.04
2023-03-29T00:40:50.920Z,83.92
2023-03-29T00:41:49.361Z,84.09
2023-03-29T00:42:46.286Z,83.82
2023-03-29T00:44:00.803Z,83.49
2023-03-29T00:45:20.823Z,83.46
2023-03-29T00:46:17.495Z,83.59
2023-03-29T00:47:14.253Z,83.44
2023-03-29T00:48:13.679Z,83.10
2023-03-29T00:49:13.613Z,83.40
2023-03-29T00:50:31.731Z,83.02
2023-03-29T00:51:32.951Z,83.62
2023-03-29T00:52:32.203Z,82.55
2023-03-29T00:53:33.454Z,81.81
2023-03-29T00:54:30.260Z,81.03
2023-03-29T00:55:32.502Z,79.24
2023-03-29T00:56:37.158Z,79.20
2023-03-29T00:57:34.281Z,77.81
2023-03-29T00:58:43.220Z,77.45
2023-03-29T00:59:43.377Z,78.17
2023-03-29T01:00:57.995Z,79.15
2023-03-29T01:02:05.408Z,76.65
2023-03-29T01:03:07.196Z,75.35
2023-03-29T01:04:09.937Z,75.23
2023-03-29T01:05:15.538Z,75.96
2023-03-29T01:06:14.922Z,76.56
2023-03-29T01:07:35.273Z,76.42
2023-03-29T01:08:44.178Z,76.29
2023-03-29T01:09:47.952Z,76.50
2023-03-29T01:10:57.564Z,75.58
2023-03-29T01:11:57.567Z,75.81
2023-03-29T01:13:00.469Z,75.87
2023-03-29T01:14:04.129Z,76.87
2023-03-29T01:15:10.045Z,77.39
2023-03-29T01:16:09.261Z,76.98
2023-03-29T01:17:06.705Z,78.01
2023-03-29T01:18:03.402Z,78.26
2023-03-29T01:19:02.300Z,78.41
2023-03-29T01:20:10.827Z,79.16
2023-03-29T01:21:34.112Z,77.49
2023-03-29T01:22:41.374Z,77.97
2023-03-29T01:23:58.368Z,78.32
2023-03-29T01:25:15.137Z,77.63
2023-03-29T01:26:29.974Z,77.46
2023-03-29T01:27:47.420Z,78.88
2023-03-29T01:28:52.705Z,78.78
2023-03-29T01:29:55.294Z,78.07
2023-03-29T01:31:00.669Z,78.10
2023-03-29T01:32:37.942Z,77.69
2023-03-29T01:33:40.431Z,77.38
2023-03-29T01:34:41.084Z,77.83
2023-03-29T01:35:45.432Z,78.01
2023-03-29T01:37:07.554Z,78.00
2023-03-29T01:38:27.997Z,77.65
2023-03-29T01:39:24.814Z,77.09
2023-03-29T01:40:21.444Z,77.71
2023-03-29T01:41:18.123Z,76.96
2023-03-29T01:42:23.576Z,77.28
2023-03-29T01:43:49.712Z,77.55
2023-03-29T01:45:06.601Z,77.38
2023-03-29T01:46:09.302Z,78.09
2023-03-29T01:47:18.158Z,78.34
2023-03-29T01:48:41.405Z,78.67
2023-03-29T01:49:46.097Z,78.48
2023-03-29T01:50:46.178Z,78.28
2023-03-29T01:51:51.145Z,78.45
2023-03-29T01:53:01.324Z,78.56
2023-03-29T01:54:10.329Z,78.53
2023-03-29T01:55:18.516Z,77.09
2023-03-29T01:56:19.684Z,77.08
2023-03-29T01:57:17.912Z,77.97
2023-03-29T01:58:16.973Z,76.85
2023-03-29T01:59:17.698Z,77.47
2023-03-29T02:00:16.791Z,76.28
2023-03-29T02:01:19.083Z,76.64
2023-03-29T02:02:18.843Z,75.95
2023-03-29T02:03:18.411Z,77.01
2023-03-29T02:04:21.091Z,76.52
2023-03-29T02:05:19.746Z,76.96
2023-03-29T02:06:24.931Z,77.47
2023-03-29T02:07:26.899Z,76.15
2023-03-29T02:08:25.699Z,76.39
2023-03-29T02:09:23.487Z,76.46
2023-03-29T02:10:21.866Z,76.68
2023-03-29T02:11:19.929Z,75.46
2023-03-29T02:12:18.013Z,76.49
2023-03-29T02:13:14.784Z,75.98
2023-03-29T02:14:11.557Z,77.21
2023-03-29T02:15:14.535Z,76.81
2023-03-29T02:16:13.570Z,76.31
2023-03-29T02:17:19.719Z,77.19
2023-03-29T02:18:17.819Z,76.54
2023-03-29T02:19:15.395Z,75.64
2023-03-29T02:20:17.672Z,74.92
2023-03-29T02:21:25.060Z,75.32
2023-03-29T02:22:36.765Z,76.13
2023-03-29T02:23:38.852Z,76.56
2023-03-29T02:24:37.176Z,75.93
2023-03-29T02:25:34.536Z,76.39
2023-03-29T02:26:31.705Z,76.51
2023-03-29T02:27:29.638Z,76.39
2023-03-29T02:28:27.211Z,76.70
2023-03-29T02:29:24.048Z,76.72
2023-03-29T02:30:23.691Z,75.49
2023-03-29T02:31:31.213Z,75.49
2023-03-29T02:32:57.459Z,75.49
2023-03-29T02:34:26.823Z,76.47
2023-03-29T02:35:34.240Z,75.77
2023-03-29T02:36:40.901Z,76.11
2023-03-29T02:37:40.618Z,75.64
2023-03-29T02:38:39.134Z,75.56
2023-03-29T02:39:36.974Z,75.57
2023-03-29T02:40:37.683Z,75.46
2023-03-29T02:41:36.339Z,75.53
2023-03-29T02:42:33.041Z,74.87
2023-03-29T02:43:31.081Z,76.36
2023-03-29T02:44:31.069Z,75.62
2023-03-29T02:45:28.256Z,75.86
2023-03-29T02:46:25.990Z,76.90
2023-03-29T02:47:28.833Z,77.16
2023-03-29T02:48:28.374Z,77.89
2023-03-29T02:49:25.274Z,77.51
2023-03-29T02:50:24.086Z,79.04
2023-03-29T02:51:25.414Z,77.49
2023-03-29T02:52:28.235Z,76.92
2023-03-29T02:53:32.799Z,78.01
2023-03-29T02:54:31.637Z,78.34
2023-03-29T02:55:34.633Z,77.59
2023-03-29T02:56:45.193Z,77.53
2023-03-29T02:57:43.562Z,76.40
2023-03-29T02:58:41.006Z,75.24
2023-03-29T02:59:38.679Z,76.53
2023-03-29T03:00:38.331Z,77.21
2023-03-29T03:01:36.846Z,78.40
2023-03-29T03:02:33.644Z,78.66
2023-03-29T03:03:30.359Z,78.04
2023-03-29T03:04:27.510Z,77.54
2023-03-29T03:05:24.294Z,77.67
2023-03-29T03:06:21.480Z,79.13
2023-03-29T03:07:20.034Z,79.14
2023-03-29T03:08:16.682Z,78.00
2023-03-29T03:09:13.879Z,76.24
2023-03-29T03:10:11.193Z,75.75
2023-03-29T03:11:08.460Z,77.38
2023-03-29T03:12:05.240Z,77.97
2023-03-29T03:13:02.290Z,78.97
2023-03-29T03:13:58.879Z,78.41
2023-03-29T03:14:55.479Z,78.43
2023-03-29T03:15:52.115Z,78.93
2023-03-29T03:16:49.726Z,78.78
2023-03-29T03:17:46.771Z,77.82
2023-03-29T03:18:44.013Z,77.19
2023-03-29T03:19:40.713Z,78.01
2023-03-29T03:20:37.321Z,76.48
2023-03-29T03:21:35.325Z,75.60
2023-03-29T03:22:32.442Z,75.76
2023-03-29T03:23:29.586Z,76.07
2023-03-29T03:24:28.061Z,76.95
2023-03-29T03:25:24.736Z,77.78
2023-03-29T03:26:22.905Z,78.75
2023-03-29T03:27:19.604Z,79.25
2023-03-29T03:28:16.190Z,77.85
2023-03-29T03:29:13.956Z,77.65
2023-03-29T03:30:11.506Z,78.42
2023-03-29T03:31:08.171Z,78.07
2023-03-29T03:32:05.148Z,78.64
2023-03-29T03:33:01.972Z,79.97
2023-03-29T03:33:58.835Z,80.63
2023-03-29T03:34:55.486Z,80.11
2023-03-29T03:35:52.650Z,79.45
2023-03-29T03:36:49.502Z,79.10
2023-03-29T03:37:46.190Z,78.07
2023-03-29T03:38:44.154Z,76.49
2023-03-29T03:39:40.878Z,75.70
2023-03-29T03:40:37.705Z,75.05
2023-03-29T03:41:35.006Z,75.26
2023-03-29T03:42:32.257Z,76.95
2023-03-29T03:43:29.245Z,76.67
2023-03-29T03:44:26.068Z,75.18
2023-03-29T03:45:22.725Z,74.96
2023-03-29T03:46:19.436Z,74.37
2023-03-29T03:47:16.051Z,73.77
2023-03-29T03:48:12.838Z,75.08
2023-03-29T03:49:09.426Z,76.03
2023-03-29T03:50:06.949Z,76.93
2023-03-29T03:51:04.834Z,78.59
2023-03-29T03:52:01.795Z,78.15
2023-03-29T03:52:58.402Z,78.41
2023-03-29T03:53:54.992Z,78.06
2023-03-29T03:54:51.796Z,78.19
2023-03-29T03:55:54.312Z,77.26
2023-03-29T03:56:51.128Z,76.21
2023-03-29T03:57:48.021Z,77.06
2023-03-29T03:58:44.677Z,77.13
2023-03-29T03:59:41.312Z,76.26
2023-03-29T04:00:38.058Z,76.94
2023-03-29T04:01:35.627Z,77.53
2023-03-29T04:02:32.824Z,75.93
2023-03-29T04:03:30.123Z,75.16
2023-03-29T04:04:27.069Z,74.02
2023-03-29T04:05:23.742Z,73.80
2023-03-29T04:06:20.384Z,74.95
2023-03-29T04:07:18.093Z,74.85
2023-03-29T04:08:15.081Z,75.32
2023-03-29T04:09:12.965Z,72.96
2023-03-29T04:10:11.255Z,73.25
2023-03-29T04:11:08.040Z,73.96
2023-03-29T04:12:05.070Z,74.35
2023-03-29T04:13:02.436Z,71.86
2023-03-29T04:13:59.207Z,72.80
2023-03-29T04:14:56.102Z,72.17
2023-03-29T04:15:58.731Z,72.19
2023-03-29T04:16:56.981Z,72.75
2023-03-29T04:17:53.946Z,72.53
2023-03-29T04:18:50.678Z,74.15
2023-03-29T04:19:47.347Z,73.98
2023-03-29T04:20:44.046Z,73.89
2023-03-29T04:21:40.794Z,73.64
2023-03-29T04:22:38.920Z,74.16
2023-03-29T04:23:36.304Z,73.91
2023-03-29T04:24:32.901Z,73.17
2023-03-29T04:25:29.717Z,71.64
2023-03-29T04:26:26.759Z,71.89
2023-03-29T04:27:23.365Z,72.22
2023-03-29T04:28:19.956Z,72.95
2023-03-29T04:29:16.873Z,73.36
2023-03-29T04:30:13.978Z,72.81
2023-03-29T04:31:14.794Z,72.29
2023-03-29T04:32:11.913Z,72.36
2023-03-29T04:33:08.750Z,72.17
2023-03-29T04:34:05.508Z,71.17
2023-03-29T04:35:02.491Z,70.84
2023-03-29T04:35:59.322Z,70.86
2023-03-29T04:36:56.471Z,70.66
2023-03-29T04:37:54.646Z,70.72
2023-03-29T04:38:54.435Z,69.91
2023-03-29T04:39:52.560Z,70.68
2023-03-29T04:40:50.382Z,71.17
2023-03-29T04:41:47.315Z,70.70
2023-03-29T04:42:44.852Z,69.93
2023-03-29T04:43:41.590Z,70.16
2023-03-29T04:44:38.301Z,70.75
2023-03-29T04:45:34.896Z,70.74
2023-03-29T04:46:32.421Z,71.22
2023-03-29T04:47:29.801Z,72.18
2023-03-29T04:48:26.688Z,72.00
2023-03-29T04:49:25.923Z,71.42
2023-03-29T04:50:22.775Z,71.16
2023-03-29T04:51:22.186Z,70.57
2023-03-29T04:52:19.312Z,70.27
2023-03-29T04:53:16.514Z,71.07
2023-03-29T04:54:13.409Z,71.26
2023-03-29T04:55:11.732Z,72.73
2023-03-29T04:56:08.815Z,70.71
2023-03-29T04:57:06.755Z,70.50
2023-03-29T04:58:04.880Z,71.21
2023-03-29T04:59:01.607Z,70.80
2023-03-29T04:59:58.333Z,70.89
2023-03-29T05:01:01.218Z,70.71
2023-03-29T05:01:58.296Z,70.15
2023-03-29T05:02:55.034Z,70.80
2023-03-29T05:03:52.777Z,71.88
2023-03-29T05:04:49.468Z,71.43
2023-03-29T05:05:46.128Z,71.14
2023-03-29T05:06:42.712Z,70.92
2023-03-29T05:07:40.174Z,70.30
2023-03-29T05:08:39.304Z,70.82
2023-03-29T05:09:36.067Z,70.73
2023-03-29T05:10:32.695Z,71.33
2023-03-29T05:11:29.372Z,70.68
2023-03-29T05:12:26.325Z,70.85
2023-03-29T05:13:23.375Z,70.51
2023-03-29T05:14:20.184Z,71.24
2023-03-29T05:15:16.939Z,71.40
2023-03-29T05:16:13.511Z,69.79
2023-03-29T05:17:10.189Z,69.79
2023-03-29T05:18:06.845Z,69.41
2023-03-29T05:19:04.073Z,70.11
2023-03-29T05:20:01.348Z,69.74
2023-03-29T05:20:59.629Z,69.16
2023-03-29T05:21:56.552Z,69.57
2023-03-29T05:22:53.666Z,68.57
2023-03-29T05:23:50.300Z,68.92
2023-03-29T05:24:47.297Z,69.59
2023-03-29T05:25:44.152Z,68.41
2023-03-29T05:26:41.054Z,68.87
2023-03-29T05:27:37.643Z,68.46
2023-03-29T05:28:34.191Z,68.87
2023-03-29T05:29:32.810Z,68.63
2023-03-29T05:30:29.733Z,68.51
2023-03-29T05:31:26.556Z,67.59
2023-03-29T05:32:23.389Z,67.81
2023-03-29T05:33:20.011Z,67.91
2023-03-29T05:34:16.607Z,68.31
2023-03-29T05:35:13.229Z,67.08
2023-03-29T05:36:14.168Z,66.72
2023-03-29T05:37:10.848Z,67.62
2023-03-29T05:38:07.546Z,66.09
2023-03-29T05:39:04.885Z,65.34
2023-03-29T05:40:05.687Z,65.88
2023-03-29T05:41:03.490Z,66.51
2023-03-29T05:42:00.920Z,66.94
2023-03-29T05:42:59.605Z,66.86
2023-03-29T05:43:56.387Z,66.22
2023-03-29T05:44:54.616Z,66.00
2023-03-29T05:45:54.187Z,65.06
2023-03-29T05:46:50.857Z,65.80
2023-03-29T05:47:48.024Z,64.69
2023-03-29T05:48:44.798Z,63.43
2023-03-29T05:49:41.505Z,64.34
2023-03-29T05:50:38.485Z,64.34
2023-03-29T05:51:35.547Z,63.78
2023-03-29T05:52:32.256Z,63.10
2023-03-29T05:53:28.961Z,63.48
2023-03-29T05:54:26.479Z,64.87
2023-03-29T05:55:23.764Z,64.77
2023-03-29T05:56:20.588Z,63.76
2023-03-29T05:57:17.207Z,63.63
2023-03-29T05:58:15.616Z,62.41
2023-03-29T05:59:13.834Z,61.30
2023-03-29T06:00:24.084Z,61.70
2023-03-29T06:01:22.651Z,62.49
2023-03-29T06:02:19.255Z,61.94
2023-03-29T06:03:22.269Z,63.45
2023-03-29T06:04:19.046Z,61.78
2023-03-29T06:05:16.141Z,61.63
2023-03-29T06:06:15.262Z,62.90
2023-03-29T06:07:12.662Z,61.87
2023-03-29T06:08:10.000Z,62.37
2023-03-29T06:09:06.952Z,61.59
2023-03-29T06:10:04.941Z,62.45
2023-03-29T06:11:05.215Z,62.67
2023-03-29T06:12:02.095Z,61.71
2023-03-29T06:12:59.138Z,60.49
2023-03-29T06:13:55.873Z,60.21
2023-03-29T06:14:52.765Z,61.38
2023-03-29T06:15:49.342Z,60.76
2023-03-29T06:16:47.113Z,60.38
2023-03-29T06:17:47.325Z,61.07
2023-03-29T06:18:44.929Z,61.40
2023-03-29T06:19:41.961Z,61.58
2023-03-29T06:20:38.615Z,60.94
2023-03-29T06:21:35.695Z,60.83
2023-03-29T06:22:32.493Z,60.69
2023-03-29T06:23:29.466Z,60.24
2023-03-29T06:24:27.094Z,59.89
2023-03-29T06:25:23.788Z,60.33
2023-03-29T06:26:20.468Z,61.00
2023-03-29T06:27:17.659Z,60.37
2023-03-29T06:28:15.090Z,59.95
2023-03-29T06:29:11.780Z,60.20
2023-03-29T06:30:08.753Z,60.26
2023-03-29T06:31:06.010Z,59.66
2023-03-29T06:32:03.402Z,59.22
2023-03-29T06:33:01.097Z,59.09
2023-03-29T06:33:58.371Z,59.02
2023-03-29T06:34:55.412Z,59.14
2023-03-29T06:35:52.793Z,58.80
2023-03-29T06:36:51.074Z,59.16
2023-03-29T06:37:50.584Z,58.10
2023-03-29T06:38:47.252Z,59.22
2023-03-29T06:39:44.053Z,60.33
2023-03-29T06:40:43.225Z,58.21
2023-03-29T06:41:39.968Z,58.57
2023-03-29T06:42:36.550Z,58.39
2023-03-29T06:43:34.798Z,57.67
2023-03-29T06:44:32.622Z,57.79
2023-03-29T06:45:32.413Z,58.71
2023-03-29T06:46:29.301Z,58.36
2023-03-29T06:47:30.875Z,58.03
2023-03-29T06:48:27.686Z,58.49
2023-03-29T06:49:24.332Z,59.39
2023-03-29T06:50:22.312Z,58.75
2023-03-29T06:51:20.573Z,58.46
2023-03-29T06:52:19.186Z,58.56
2023-03-29T06:53:16.048Z,57.85
2023-03-29T06:54:13.321Z,58.38
2023-03-29T06:55:11.955Z,57.26
2023-03-29T06:56:09.825Z,56.82
2023-03-29T06:57:07.982Z,57.88
2023-03-29T06:58:04.688Z,57.83
2023-03-29T06:59:01.235Z,57.38
2023-03-29T06:59:57.820Z,56.94
2023-03-29T07:01:00.805Z,56.15
2023-03-29T07:01:57.621Z,55.28
2023-03-29T07:02:56.571Z,55.69
2023-03-29T07:03:54.423Z,54.81
2023-03-29T07:04:51.794Z,53.67
2023-03-29T07:05:48.430Z,54.66
2023-03-29T07:06:48.473Z,55.01
2023-03-29T07:08:11.362Z,55.20
2023-03-29T07:09:08.065Z,55.01
2023-03-29T07:10:05.560Z,55.72
2023-03-29T07:11:03.366Z,56.20
2023-03-29T07:12:00.442Z,54.93
2023-03-29T07:12:57.396Z,54.77
2023-03-29T07:13:55.566Z,53.85
2023-03-29T07:14:52.890Z,54.30
2023-03-29T07:15:49.523Z,54.02
2023-03-29T07:16:47.342Z,54.21
2023-03-29T07:17:44.167Z,54.05
2023-03-29T07:18:44.333Z,55.18
2023-03-29T07:19:40.934Z,53.53
2023-03-29T07:20:39.040Z,53.83
2023-03-29T07:21:37.871Z,53.75
2023-03-29T07:22:34.592Z,53.11
2023-03-29T07:23:31.426Z,53.14
2023-03-29T07:24:28.485Z,53.48
2023-03-29T07:25:27.516Z,52.87
2023-03-29T07:26:28.541Z,51.90
2023-03-29T07:27:27.062Z,52.10
2023-03-29T07:28:23.770Z,51.33
2023-03-29T07:29:20.884Z,51.93
2023-03-29T07:30:22.940Z,51.12
2023-03-29T07:31:19.522Z,51.66
2023-03-29T07:32:16.572Z,50.76
2023-03-29T07:33:13.456Z,50.91
2023-03-29T07:34:13.526Z,51.10
2023-03-29T07:35:12.151Z,50.82
2023-03-29T07:36:09.000Z,51.35
2023-03-29T07:37:07.212Z,50.80
2023-03-29T07:38:04.006Z,50.32
2023-03-29T07:39:01.952Z,51.89
2023-03-29T07:40:00.154Z,50.55
2023-03-29T07:40:57.743Z,51.20
2023-03-29T07:41:57.583Z,50.46
2023-03-29T07:42:56.657Z,51.59
2023-03-29T07:43:54.283Z,51.94
2023-03-29T07:44:50.859Z,51.21
2023-03-29T07:45:48.445Z,52.09
2023-03-29T07:46:45.114Z,51.17
2023-03-29T07:47:42.140Z,50.97
2023-03-29T07:48:39.014Z,51.14
2023-03-29T07:49:35.887Z,50.40
2023-03-29T07:50:32.767Z,50.58
2023-03-29T07:51:29.786Z,49.75
2023-03-29T07:52:28.980Z,49.25
2023-03-29T07:53:27.001Z,48.99
2023-03-29T07:54:24.033Z,48.19
2023-03-29T07:55:20.796Z,47.26
2023-03-29T07:56:17.467Z,47.88
2023-03-29T07:57:14.181Z,48.72
2023-03-29T07:58:10.796Z,48.98
2023-03-29T07:59:07.362Z,48.86
2023-03-29T08:00:31.702Z,49.32
2023-03-29T08:01:28.396Z,48.45
2023-03-29T08:02:25.413Z,47.90
2023-03-29T08:03:22.919Z,48.10
2023-03-29T08:04:20.425Z,47.61
2023-03-29T08:05:23.434Z,47.90
2023-03-29T08:06:27.474Z,49.13
2023-03-29T08:07:24.885Z,49.07
2023-03-29T08:08:22.120Z,48.63
2023-03-29T08:09:18.761Z,48.58
2023-03-29T08:10:17.931Z,47.87
2023-03-29T08:11:15.292Z,48.34
2023-03-29T08:12:11.929Z,47.56
2023-03-29T08:13:09.367Z,48.50
2023-03-29T08:14:07.272Z,49.56
2023-03-29T08:15:05.541Z,48.44
2023-03-29T08:16:02.165Z,48.45
2023-03-29T08:16:58.941Z,50.33
2023-03-29T08:17:55.852Z,49.79
2023-03-29T08:18:52.624Z,48.61
2023-03-29T08:19:50.850Z,48.55
2023-03-29T08:20:48.032Z,49.28
2023-03-29T08:21:44.732Z,48.20
2023-03-29T08:22:41.663Z,48.76
2023-03-29T08:23:38.271Z,48.93
2023-03-29T08:24:34.906Z,47.01
2023-03-29T08:25:31.557Z,47.01
2023-03-29T08:26:28.188Z,46.89
2023-03-29T08:27:25.014Z,46.04
2023-03-29T08:28:22.326Z,45.13
2023-03-29T08:29:18.959Z,45.52
2023-03-29T08:30:15.642Z,45.97
2023-03-29T08:31:12.926Z,46.01
2023-03-29T08:32:09.803Z,47.18
2023-03-29T08:33:06.624Z,46.61
2023-03-29T08:34:03.627Z,46.25
2023-03-29T08:35:03.865Z,46.41
2023-03-29T08:36:00.544Z,45.07
2023-03-29T08:36:58.566Z,45.42
2023-03-29T08:37:55.110Z,46.67
2023-03-29T08:38:52.007Z,45.42
2023-03-29T08:39:48.683Z,45.60
2023-03-29T08:40:48.626Z,45.23
2023-03-29T08:41:48.174Z,45.48
2023-03-29T08:42:45.060Z,45.44
2023-03-29T08:44:02.863Z,47.07
2023-03-29T08:44:59.419Z,45.43
2023-03-29T08:46:02.024Z,44.98
2023-03-29T08:47:15.910Z,43.69
2023-03-29T08:48:28.905Z,44.55
2023-03-29T08:49:26.520Z,43.95
2023-03-29T08:50:48.033Z,44.96
2023-03-29T08:51:50.156Z,43.59
2023-03-29T08:52:57.667Z,43.87
2023-03-29T08:54:01.913Z,44.30
2023-03-29T08:55:01.622Z,43.70
2023-03-29T08:56:01.817Z,43.16
2023-03-29T08:57:05.297Z,44.17
2023-03-29T08:58:03.188Z,42.64
2023-03-29T08:59:00.469Z,43.15
2023-03-29T09:00:01.852Z,43.36
2023-03-29T09:01:01.140Z,44.20
2023-03-29T09:02:00.402Z,41.93
2023-03-29T09:03:00.316Z,41.82
2023-03-29T09:04:10.165Z,41.17
2023-03-29T09:05:22.614Z,41.30
2023-03-29T09:06:22.047Z,41.32
2023-03-29T09:07:18.892Z,41.58
2023-03-29T09:08:18.265Z,40.59
2023-03-29T09:09:19.859Z,41.14
2023-03-29T09:10:21.278Z,41.29
2023-03-29T09:11:23.961Z,42.02
2023-03-29T09:12:41.819Z,41.58
2023-03-29T09:13:47.054Z,40.46
2023-03-29T09:14:50.905Z,39.75
2023-03-29T09:16:19.344Z,39.32
2023-03-29T09:17:36.287Z,39.32
2023-03-29T09:18:57.592Z,39.73
2023-03-29T09:20:34.716Z,40.72
2023-03-29T09:21:50.657Z,40.34
2023-03-29T09:22:59.341Z,40.23
2023-03-29T09:24:08.597Z,40.31
2023-03-29T09:25:25.016Z,41.68
2023-03-29T09:26:36.047Z,41.44
2023-03-29T09:27:50.106Z,39.77
2023-03-29T09:29:07.721Z,39.44
2023-03-29T09:30:31.470Z,39.79
2023-03-29T09:31:39.162Z,39.04
2023-03-29T09:32:44.118Z,38.63
2023-03-29T09:33:50.553Z,38.70
2023-03-29T09:35:00.276Z,38.68
2023-03-29T09:36:05.046Z,37.95
2023-03-29T09:37:08.888Z,38.38
2023-03-29T09:38:11.780Z,37.74
2023-03-29T09:39:13.266Z,40.27
2023-03-29T09:40:21.406Z,38.19
2023-03-29T09:41:30.290Z,37.40
2023-03-29T09:42:29.655Z,38.51
2023-03-29T09:43:32.482Z,37.09
2023-03-29T09:44:35.986Z,36.12
2023-03-29T09:45:33.498Z,37.67
2023-03-29T09:46:39.336Z,36.44
2023-03-29T09:47:40.913Z,38.29
2023-03-29T09:48:41.476Z,37.31
2023-03-29T09:49:47.159Z,37.52
2023-03-29T09:50:51.393Z,38.25
2023-03-29T09:51:50.135Z,38.37
2023-03-29T09:52:49.816Z,37.81
2023-03-29T09:53:47.219Z,37.52
2023-03-29T09:54:44.353Z,38.08
2023-03-29T09:55:41.265Z,38.66
2023-03-29T09:56:39.504Z,37.05
2023-03-29T09:57:36.250Z,37.66
2023-03-29T09:58:32.957Z,36.90
2023-03-29T09:59:30.192Z,38.69
2023-03-29T10:00:26.782Z,36.89
2023-03-29T10:01:23.528Z,37.07
2023-03-29T10:02:21.501Z,38.11
2023-03-29T10:03:23.872Z,37.01
2023-03-29T10:04:22.276Z,37.25
2023-03-29T10:05:18.961Z,35.81
2023-03-29T10:06:17.317Z,37.35
2023-03-29T10:07:20.595Z,36.76
2023-03-29T10:08:29.765Z,37.71
2023-03-29T10:09:29.457Z,37.64
2023-03-29T10:10:35.089Z,36.71
2023-03-29T10:11:38.540Z,38.50
2023-03-29T10:12:35.390Z,36.34
2023-03-29T10:13:35.394Z,34.83
2023-03-29T10:14:53.620Z,35.53
2023-03-29T10:16:21.573Z,36.14
2023-03-29T10:17:29.596Z,35.73
2023-03-29T10:18:27.390Z,36.91
2023-03-29T10:19:34.395Z,35.38
2023-03-29T10:20:34.379Z,35.98
2023-03-29T10:21:31.716Z,36.99
2023-03-29T10:22:36.442Z,34.80
2023-03-29T10:23:36.660Z,35.10
2023-03-29T10:24:33.912Z,34.44
2023-03-29T10:25:33.988Z,34.36
2023-03-29T10:26:34.490Z,33.58
2023-03-29T10:27:35.878Z,34.84
2023-03-29T10:28:35.035Z,35.12
2023-03-29T10:29:38.753Z,34.53
2023-03-29T10:30:38.637Z,33.89
2023-03-29T10:31:41.668Z,33.85
2023-03-29T10:32:39.303Z,33.96
2023-03-29T10:33:36.643Z,34.58
2023-03-29T10:34:33.902Z,32.89
2023-03-29T10:35:41.556Z,33.83
2023-03-29T10:36:42.107Z,32.93
2023-03-29T10:37:48.891Z,33.69
2023-03-29T10:38:46.258Z,32.25
2023-03-29T10:39:43.090Z,32.30
2023-03-29T10:40:48.818Z,32.10
2023-03-29T10:41:46.036Z,32.17
2023-03-29T10:42:50.003Z,32.04
2023-03-29T10:43:50.805Z,33.03
2023-03-29T10:45:40.061Z,32.23
2023-03-29T10:46:44.151Z,30.40
2023-03-29T10:47:45.434Z,31.08
2023-03-29T10:48:47.823Z,30.96
2023-03-29T10:49:57.161Z,30.55
2023-03-29T10:51:00.129Z,32.30
2023-03-29T10:51:57.340Z,31.79
2023-03-29T10:52:54.019Z,30.37
2023-03-29T10:53:50.858Z,30.55
2023-03-29T10:54:49.587Z,31.82
2023-03-29T10:56:20.072Z,33.25
2023-03-29T10:57:41.438Z,31.66
2023-03-29T10:58:58.383Z,32.03
2023-03-29T11:00:05.335Z,33.92
2023-03-29T11:01:02.466Z,32.69
2023-03-29T11:02:14.371Z,33.34
2023-03-29T11:03:37.586Z,33.51
2023-03-29T11:04:47.760Z,33.65
2023-03-29T11:05:57.432Z,31.59
2023-03-29T11:07:12.936Z,32.20
2023-03-29T11:08:21.401Z,31.51
2023-03-29T11:09:18.002Z,32.13
2023-03-29T11:10:32.339Z,32.12
2023-03-29T11:11:49.550Z,32.12
2023-03-29T11:13:04.394Z,31.93
2023-03-29T11:14:28.165Z,29.65
2023-03-29T11:15:33.899Z,31.53
2023-03-29T11:16:53.736Z,30.33
2023-03-29T11:18:05.152Z,30.38
2023-03-29T11:19:14.634Z,29.72
2023-03-29T11:20:17.571Z,30.24
2023-03-29T11:21:39.867Z,31.89
2023-03-29T11:23:03.991Z,32.51
2023-03-29T11:24:10.064Z,32.70
2023-03-29T11:25:23.208Z,30.89
2023-03-29T11:26:22.794Z,31.64
2023-03-29T11:27:46.092Z,32.38
2023-03-29T11:28:55.743Z,30.36
2023-03-29T11:29:57.403Z,30.44
2023-03-29T11:31:28.248Z,30.49
2023-03-29T11:32:34.190Z,29.78
2023-03-29T11:33:56.834Z,31.44
2023-03-29T11:35:17.735Z,28.85
2023-03-29T11:36:22.765Z,30.68
2023-03-29T11:37:39.643Z,31.21
2023-03-29T11:39:15.269Z,30.54
2023-03-29T11:40:42.778Z,32.50
2023-03-29T11:41:44.970Z,30.16
2023-03-29T11:42:48.425Z,31.52
2023-03-29T11:43:49.955Z,30.98
2023-03-29T11:44:50.196Z,30.78
2023-03-29T11:45:55.907Z,30.68
2023-03-29T11:47:15.092Z,30.75
2023-03-29T11:48:24.216Z,30.97
2023-03-29T11:49:29.428Z,29.60
2023-03-29T11:50:35.356Z,30.30
2023-03-29T11:51:41.424Z,30.43
2023-03-29T11:52:42.994Z,29.91
2023-03-29T11:54:13.510Z,29.88
2023-03-29T11:55:18.216Z,30.00
2023-03-29T11:56:26.672Z,29.60
2023-03-29T11:57:45.223Z,29.10
2023-03-29T11:58:47.587Z,30.24
2023-03-29T12:00:01.850Z,29.69
2023-03-29T12:01:06.214Z,29.47
2023-03-29T12:02:16.295Z,30.81
2023-03-29T12:03:42.184Z,28.97
2023-03-29T12:04:46.506Z,29.19
2023-03-29T12:05:49.036Z,29.36
2023-03-29T12:06:48.377Z,28.75
2023-03-29T12:07:58.136Z,29.01
2023-03-29T12:09:04.027Z,31.62
2023-03-29T12:10:07.758Z,28.57
2023-03-29T12:11:11.955Z,27.96
2023-03-29T12:12:25.112Z,29.17
2023-03-29T12:13:25.201Z,28.47
2023-03-29T12:14:32.510Z,30.22
2023-03-29T12:15:34.160Z,28.69
2023-03-29T12:17:01.131Z,27.49
2023-03-29T12:18:28.217Z,28.08
2023-03-29T12:19:34.296Z,28.02
2023-03-29T12:20:36.910Z,29.04
2023-03-29T12:21:36.310Z,27.98
2023-03-29T12:22:33.747Z,29.00
2023-03-29T12:23:34.077Z,27.40
2023-03-29T12:24:34.565Z,28.27
2023-03-29T12:25:57.276Z,29.17
2023-03-29T12:27:20.478Z,28.75
2023-03-29T12:28:26.227Z,29.33
2023-03-29T12:29:37.646Z,28.46
2023-03-29T12:30:59.315Z,28.05
2023-03-29T12:32:33.311Z,28.75
2023-03-29T12:33:39.192Z,28.28
2023-03-29T12:35:00.949Z,28.84
2023-03-29T12:36:22.188Z,28.72
2023-03-29T12:37:50.140Z,28.11
2023-03-29T12:38:48.206Z,27.73
2023-03-29T12:39:45.207Z,28.84
2023-03-29T12:40:45.838Z,29.16
2023-03-29T12:41:45.694Z,29.14
2023-03-29T12:43:05.464Z,27.15
2023-03-29T12:44:04.227Z,27.15
2023-03-29T12:45:01.673Z,27.25
2023-03-29T12:46:06.696Z,28.11
2023-03-29T12:47:03.561Z,28.31
2023-03-29T12:48:01.355Z,28.64
2023-03-29T12:49:05.947Z,28.33
2023-03-29T12:50:04.625Z,29.62
2023-03-29T12:51:03.573Z,29.84
2023-03-29T12:52:03.191Z,29.70
2023-03-29T12:53:37.123Z,28.06
2023-03-29T12:54:34.185Z,27.74
2023-03-29T12:55:42.802Z,28.78
2023-03-29T12:57:00.476Z,28.47
2023-03-29T12:58:10.797Z,28.21
2023-03-29T12:59:25.739Z,28.88
2023-03-29T13:01:17.865Z,28.37
2023-03-29T13:02:14.658Z,28.26
2023-03-29T13:03:27.765Z,27.80
2023-03-29T13:04:49.999Z,28.31
2023-03-29T13:05:47.198Z,28.50
2023-03-29T13:06:46.654Z,26.92
2023-03-29T13:07:49.655Z,26.96
2023-03-29T13:08:46.307Z,27.50
2023-03-29T13:10:09.725Z,27.76
2023-03-29T13:11:09.886Z,27.74
2023-03-29T13:12:15.894Z,28.73
2023-03-29T13:13:21.195Z,28.96
2023-03-29T13:14:20.433Z,27.90
2023-03-29T13:15:17.061Z,28.92